Time;durP1;ratioP1;P1;durP2;ratioP2;P2;SDS_P1;SDS_P2;PMS_P1;PMS_P2;Temp;Humidity;BMP_temperature;BMP_pressure;BME280_temperature;BME280_humidity;BME280_pressure;Samples;Min_cycle;Max_cycle;Signal;HPM_P1;HPM_P2
2023/12/11 00:00:17;;;;;;;0.38;0.35;;;;;;;32.52;31.65;97156.84;7394943;19;20102;-60
2023/12/11 00:02:44;;;;;;;0.90;0.08;;;;;;;32.64;31.71;97175.06;7394296;19;20039;-61
2023/12/11 00:05:10;;;;;;;0.20;0.20;;;;;;;32.92;31.46;97185.63;7391295;19;20025;-61
2023/12/11 00:07:36;;;;;;;0.10;0.10;;;;;;;32.48;31.77;97171.91;7390309;19;20014;-61
2023/12/11 00:10:06;;;;;;;0.17;0.15;;;;;;;31.74;32.56;97188.41;7392407;19;20033;-61
2023/12/11 00:12:32;;;;;;;0.10;0.00;;;;;;;31.48;32.66;97192.84;7390705;19;20052;-60
2023/12/11 00:14:59;;;;;;;0.10;0.00;;;;;;;31.24;32.59;97195.88;7389930;19;20014;-61
2023/12/11 00:17:27;;;;;;;0.10;0.00;;;;;;;31.17;33.08;97212.28;7389312;19;20011;-61
2023/12/11 00:19:53;;;;;;;0.10;0.10;;;;;;;31.46;32.71;97215.84;7392319;19;20029;-60
2023/12/11 00:22:20;;;;;;;0.10;0.00;;;;;;;31.62;32.95;97221.97;7389860;19;20019;-60
2023/12/11 00:24:46;;;;;;;0.00;0.00;;;;;;;31.23;32.85;97218.16;7390151;19;20032;-62
2023/12/11 00:27:12;;;;;;;0.10;0.10;;;;;;;31.33;32.73;97226.31;7389537;19;20046;-61
2023/12/11 00:29:39;;;;;;;0.40;0.40;;;;;;;30.87;33.41;97246.03;7392967;19;20050;-60
2023/12/11 00:32:05;;;;;;;0.10;0.00;;;;;;;34.73;30.90;97252.41;7390935;19;20015;-60
2023/12/11 00:34:32;;;;;;;0.10;0.05;;;;;;;40.13;25.38;97240.59;7389377;19;20039;-60
2023/12/11 00:37:00;;;;;;;0.10;0.00;;;;;;;30.45;32.17;97282.97;7393694;19;20015;-60
2023/12/11 00:39:26;;;;;;;0.10;0.03;;;;;;;27.63;36.06;97284.91;7392258;19;20457;-61
2023/12/11 00:41:52;;;;;;;0.10;0.10;;;;;;;25.48;40.23;97299.03;7391132;19;20543;-61
2023/12/11 00:44:18;;;;;;;0.10;0.00;;;;;;;24.55;42.35;97298.63;7390854;19;20040;-61
2023/12/11 00:46:45;;;;;;;0.10;0.00;;;;;;;25.06;42.86;97319.75;7390205;19;20044;-61
2023/12/11 00:49:11;;;;;;;0.10;0.00;;;;;;;25.13;42.80;97324.38;7391772;19;20070;-60
2023/12/11 00:51:37;;;;;;;0.10;0.00;;;;;;;25.47;42.64;97331.75;7391372;19;20090;-61
2023/12/11 00:54:03;;;;;;;0.10;0.00;;;;;;;25.64;42.96;97324.00;7391175;19;20054;-60
2023/12/11 00:56:30;;;;;;;0.10;0.00;;;;;;;24.37;45.26;97343.19;7391148;19;20007;-61
2023/12/11 00:58:56;;;;;;;0.10;0.10;;;;;;;24.46;47.21;97353.63;7391200;19;20467;-63
2023/12/11 01:01:22;;;;;;;0.10;0.10;;;;;;;25.52;47.19;97355.50;7393737;19;20026;-61
2023/12/11 01:03:48;;;;;;;0.10;0.10;;;;;;;24.79;48.78;97363.25;7393447;19;20015;-61
2023/12/11 01:06:14;;;;;;;0.10;0.10;;;;;;;23.00;54.18;97387.41;7390112;19;20543;-61
2023/12/11 01:08:41;;;;;;;0.10;0.00;;;;;;;23.77;53.17;97392.56;7393515;19;20035;-60
2023/12/11 01:11:08;;;;;;;0.05;0.05;;;;;;;37.13;31.86;97378.59;7400650;19;20019;-60
2023/12/11 01:13:34;;;;;;;0.30;0.30;;;;;;;28.50;39.96;97406.28;7398899;19;20007;-61
2023/12/11 01:16:00;;;;;;;0.00;0.00;;;;;;;37.57;30.85;97407.75;7397423;19;20011;-61
2023/12/11 01:18:27;;;;;;;0.10;0.00;;;;;;;38.51;28.81;97418.63;7397793;19;20096;-60
2023/12/11 01:20:53;;;;;;;0.10;0.00;;;;;;;39.01;28.52;97431.56;7400194;19;20460;-60
2023/12/11 01:23:19;;;;;;;0.00;0.00;;;;;;;39.65;27.38;97450.91;7396964;19;20531;-61
2023/12/11 01:25:45;;;;;;;0.20;0.15;;;;;;;28.23;39.08;97480.38;7397792;19;20007;-60
2023/12/11 01:28:12;;;;;;;0.10;0.00;;;;;;;25.12;49.10;97490.94;7395794;19;20018;-64
2023/12/11 01:30:38;;;;;;;0.10;0.00;;;;;;;25.09;50.47;97491.47;7399162;19;20010;-60
2023/12/11 01:33:04;;;;;;;0.10;0.00;;;;;;;23.88;54.00;97516.09;7396675;19;20105;-60
2023/12/11 01:35:33;;;;;;;2.05;0.63;;;;;;;24.17;55.59;97522.06;7394820;19;20022;-61
2023/12/11 01:38:00;;;;;;;0.20;0.13;;;;;;;25.22;53.46;97531.38;7400458;19;20348;-61
2023/12/11 01:40:26;;;;;;;0.00;0.00;;;;;;;24.53;55.60;97551.81;7397701;19;20463;-60
2023/12/11 01:42:52;;;;;;;0.30;0.22;;;;;;;23.33;62.52;97563.31;7395612;19;20011;-61
2023/12/11 01:45:18;;;;;;;2.95;0.75;;;;;;;30.13;46.21;97554.78;7396854;19;20011;-60
2023/12/11 01:47:45;;;;;;;0.10;0.00;;;;;;;28.94;44.62;97584.16;7395680;19;20024;-60
2023/12/11 01:50:11;;;;;;;0.10;0.10;;;;;;;27.29;47.56;97602.91;7398274;19;20011;-60
2023/12/11 01:52:37;;;;;;;0.10;0.10;;;;;;;26.01;51.03;97601.72;7397258;19;20070;-60
2023/12/11 01:55:05;;;;;;;1.10;0.55;;;;;;;25.83;52.17;97625.75;7397369;19;20011;-60
2023/12/11 01:57:31;;;;;;;4.38;0.73;;;;;;;26.91;49.63;97622.63;7397157;19;20019;-60
2023/12/11 01:59:59;;;;;;;0.03;0.00;;;;;;;30.16;44.04;97624.50;7397135;19;20014;-61
2023/12/11 02:02:25;;;;;;;2.35;0.20;;;;;;;30.52;42.36;97629.38;7396645;19;20162;-59
2023/12/11 02:04:53;;;;;;;0.75;0.30;;;;;;;30.22;42.36;97648.44;7396611;19;20014;-60
2023/12/11 02:07:20;;;;;;;0.10;0.00;;;;;;;29.65;43.19;97657.13;7397657;19;20078;-60
2023/12/11 02:09:46;;;;;;;10.05;0.63;;;;;;;30.69;41.16;97668.72;7396334;19;20561;-60
2023/12/11 02:12:13;;;;;;;1.27;0.40;;;;;;;30.32;41.49;97677.50;7396724;19;20090;-60
2023/12/11 02:14:39;;;;;;;0.10;0.00;;;;;;;30.32;41.04;97671.06;7395915;19;20855;-60
2023/12/11 02:17:09;;;;;;;0.15;0.15;;;;;;;30.38;41.23;97685.63;7393503;19;20010;-60
2023/12/11 02:19:36;;;;;;;0.27;0.27;;;;;;;30.16;41.41;97710.66;7395122;19;20107;-60
2023/12/11 02:22:02;;;;;;;0.20;0.20;;;;;;;30.51;41.20;97704.75;7392796;19;20349;-60
2023/12/11 02:24:37;;;;;;;1.27;0.22;;;;;;;31.43;39.41;97707.78;7395022;19;20495;-60
2023/12/11 02:27:03;;;;;;;0.10;0.10;;;;;;;30.55;40.11;97707.75;7393873;19;20021;-60
2023/12/11 02:29:29;;;;;;;0.10;0.10;;;;;;;29.52;40.73;97718.31;7394801;19;20374;-59
2023/12/11 02:31:56;;;;;;;3.30;0.55;;;;;;;29.02;41.39;97730.66;7400531;19;20006;-59
2023/12/11 02:34:22;;;;;;;0.10;0.05;;;;;;;26.85;45.73;97736.59;7395502;19;20352;-59
2023/12/11 02:36:48;;;;;;;0.20;0.20;;;;;;;25.84;47.89;97747.75;7396024;19;20095;-61
2023/12/11 02:39:14;;;;;;;0.15;0.10;;;;;;;25.67;47.75;97750.34;7392275;19;20468;-60
2023/12/11 02:41:40;;;;;;;0.30;0.28;;;;;;;24.65;51.47;97755.31;7395452;19;20082;-59
2023/12/11 02:44:06;;;;;;;0.10;0.00;;;;;;;24.55;52.94;97768.22;7395941;19;20507;-60
2023/12/11 02:46:32;;;;;;;0.10;0.05;;;;;;;26.48;51.33;97767.53;7395700;19;20018;-59
2023/12/11 02:48:59;;;;;;;0.10;0.00;;;;;;;26.34;49.63;97781.06;7395499;19;20011;-60
2023/12/11 02:51:25;;;;;;;0.20;0.20;;;;;;;30.36;42.70;97774.59;7398320;19;20107;-59
2023/12/11 02:53:51;;;;;;;0.15;0.15;;;;;;;30.76;40.87;97781.00;7394726;19;20011;-59
2023/12/11 02:56:17;;;;;;;0.10;0.00;;;;;;;30.80;40.83;97786.91;7396798;19;20015;-59
2023/12/11 02:58:44;;;;;;;0.10;0.00;;;;;;;30.89;40.47;97783.66;7397816;19;20010;-60
2023/12/11 03:01:10;;;;;;;0.10;0.00;;;;;;;30.57;40.03;97799.78;7396435;19;20017;-61
2023/12/11 03:03:36;;;;;;;0.80;0.47;;;;;;;32.71;37.32;97802.25;7397015;19;20025;-59
2023/12/11 03:06:04;;;;;;;0.47;0.38;;;;;;;33.78;35.69;97801.31;7393087;19;20467;-59
2023/12/11 03:08:30;;;;;;;0.10;0.10;;;;;;;34.07;35.42;97809.94;7394941;19;20021;-59
2023/12/11 03:10:56;;;;;;;0.10;0.10;;;;;;;34.01;34.82;97812.72;7396031;19;20025;-59
2023/12/11 03:13:22;;;;;;;0.10;0.10;;;;;;;34.06;34.51;97817.16;7394107;19;20019;-59
2023/12/11 03:15:48;;;;;;;0.10;0.10;;;;;;;28.51;39.89;97828.03;7394030;19;20014;-59
2023/12/11 03:18:14;;;;;;;0.20;0.00;;;;;;;39.42;29.10;97820.31;7394034;19;20051;-59
2023/12/11 03:20:41;;;;;;;0.10;0.10;;;;;;;41.67;26.42;97817.97;7396161;19;20014;-59
2023/12/11 03:23:07;;;;;;;0.65;0.20;;;;;;;41.72;25.72;97820.09;7391013;19;20013;-59
2023/12/11 03:25:33;;;;;;;0.10;0.00;;;;;;;28.20;38.47;97839.53;7391698;19;20039;-59
2023/12/11 03:27:59;;;;;;;0.45;0.45;;;;;;;30.94;36.48;97845.66;7392024;19;20351;-59
2023/12/11 03:30:25;;;;;;;0.10;0.10;;;;;;;31.20;36.45;97846.56;7393818;19;20049;-59
2023/12/11 03:32:51;;;;;;;0.17;0.15;;;;;;;31.44;36.08;97843.78;7390376;19;20027;-59
2023/12/11 03:35:17;;;;;;;0.10;0.10;;;;;;;28.34;39.21;97860.22;7392673;19;20030;-59
2023/12/11 03:37:43;;;;;;;0.10;0.00;;;;;;;26.13;43.21;97864.16;7394023;19;20018;-59
2023/12/11 03:40:10;;;;;;;1.30;1.05;;;;;;;31.81;37.23;97855.03;7393105;19;20038;-59
2023/12/11 03:42:36;;;;;;;0.10;0.00;;;;;;;31.16;36.82;97872.31;7392363;19;20021;-60
2023/12/11 03:45:03;;;;;;;0.10;0.10;;;;;;;32.05;35.78;97872.38;7393251;19;20015;-60
2023/12/11 03:47:29;;;;;;;0.38;0.38;;;;;;;32.34;35.26;97871.03;7390846;19;20010;-59
2023/12/11 03:49:55;;;;;;;0.30;0.30;;;;;;;32.74;34.42;97869.34;7391178;19;20049;-59
2023/12/11 03:52:21;;;;;;;0.28;0.25;;;;;;;34.37;32.84;97870.56;7390351;19;20010;-59
2023/12/11 03:54:48;;;;;;;0.43;0.43;;;;;;;33.47;33.65;97889.34;7392094;19;20010;-59
2023/12/11 03:57:14;;;;;;;0.10;0.10;;;;;;;33.44;33.32;97884.97;7392653;19;20018;-59
2023/12/11 03:59:40;;;;;;;1.13;0.17;;;;;;;33.12;33.37;97889.88;7392887;19;20015;-59
2023/12/11 04:02:06;;;;;;;0.10;0.00;;;;;;;32.91;33.78;97885.69;7394145;19;20102;-59
2023/12/11 04:04:33;;;;;;;0.10;0.00;;;;;;;33.18;33.34;97887.16;7392446;19;20467;-59
2023/12/11 04:06:59;;;;;;;0.28;0.28;;;;;;;33.10;33.39;97892.69;7390397;19;20027;-59
2023/12/11 04:09:27;;;;;;;0.73;0.52;;;;;;;31.68;34.54;97892.75;7396646;19;20014;-58
2023/12/11 04:11:53;;;;;;;0.10;0.10;;;;;;;29.24;37.44;97909.34;7394058;19;20014;-59
2023/12/11 04:14:19;;;;;;;0.45;0.45;;;;;;;28.35;38.72;97916.13;7390168;19;20010;-59
2023/12/11 04:16:45;;;;;;;0.10;0.10;;;;;;;28.96;38.01;97914.59;7390457;19;20007;-59
2023/12/11 04:19:11;;;;;;;6.88;0.65;;;;;;;28.08;39.93;97919.88;7390673;19;20471;-59
2023/12/11 04:21:38;;;;;;;0.57;0.57;;;;;;;27.86;40.05;97924.50;7394338;19;20351;-60
2023/12/11 04:24:04;;;;;;;1.80;0.65;;;;;;;28.29;39.83;97919.41;7392294;19;20018;-60
2023/12/11 04:26:30;;;;;;;1.55;0.45;;;;;;;29.24;38.70;97927.28;7390994;19;20011;-58
2023/12/11 04:28:56;;;;;;;6.00;0.75;;;;;;;29.28;38.84;97931.75;7391046;19;20046;-60
2023/12/11 04:31:23;;;;;;;0.10;0.10;;;;;;;29.24;39.15;97930.16;7393797;19;20487;-58
2023/12/11 04:33:50;;;;;;;0.52;0.52;;;;;;;33.21;33.77;97926.19;7391216;19;20007;-60
2023/12/11 04:36:16;;;;;;;0.22;0.22;;;;;;;33.85;33.20;97927.84;7391294;19;20011;-58
2023/12/11 04:38:43;;;;;;;0.15;0.15;;;;;;;34.49;32.14;97934.41;7394897;19;20024;-59
2023/12/11 04:41:09;;;;;;;0.10;0.10;;;;;;;34.31;32.06;97952.09;7394555;19;20070;-59
2023/12/11 04:43:35;;;;;;;0.10;0.10;;;;;;;34.43;32.00;97940.06;7392747;19;20022;-59
2023/12/11 04:46:02;;;;;;;0.15;0.15;;;;;;;31.43;34.74;97946.63;7397931;19;20010;-59
2023/12/11 04:48:28;;;;;;;0.10;0.00;;;;;;;28.79;37.99;97963.22;7395740;19;20007;-59
2023/12/11 04:50:54;;;;;;;0.52;0.52;;;;;;;28.70;38.51;97972.84;7400248;19;20070;-58
2023/12/11 04:53:20;;;;;;;0.10;0.00;;;;;;;28.36;38.72;97969.13;7399155;19;20015;-58
2023/12/11 04:55:46;;;;;;;0.10;0.00;;;;;;;28.18;39.59;97986.19;7397847;19;20007;-58
2023/12/11 04:58:13;;;;;;;0.20;0.20;;;;;;;28.58;39.58;97983.75;7398433;19;20015;-58
2023/12/11 05:00:39;;;;;;;0.10;0.00;;;;;;;28.91;38.85;97986.72;7399711;19;20010;-60
2023/12/11 05:03:05;;;;;;;0.68;0.65;;;;;;;33.67;34.60;97982.28;7398343;19;20091;-59
2023/12/11 05:05:31;;;;;;;0.57;0.30;;;;;;;29.25;37.98;97999.72;7397446;19;20035;-59
2023/12/11 05:07:57;;;;;;;0.10;0.00;;;;;;;28.37;39.27;98005.69;7397629;19;20074;-58
2023/12/11 05:10:23;;;;;;;0.22;0.22;;;;;;;27.01;41.21;97993.81;7397100;19;19999;-58
2023/12/11 05:12:50;;;;;;;0.65;0.50;;;;;;;27.56;40.47;98003.09;7395630;19;20018;-58
2023/12/11 05:15:16;;;;;;;0.17;0.10;;;;;;;26.10;42.31;98013.78;7397147;19;20026;-59
2023/12/11 05:17:42;;;;;;;2.92;0.57;;;;;;;25.70;43.27;98006.50;7396184;19;20066;-58
2023/12/11 05:20:09;;;;;;;0.20;0.20;;;;;;;25.78;43.51;98017.59;7396671;19;20062;-60
2023/12/11 05:22:35;;;;;;;0.10;0.00;;;;;;;25.60;43.99;98025.13;7395899;19;20362;-58
2023/12/11 05:25:01;;;;;;;0.20;0.20;;;;;;;29.37;39.83;98020.31;7395994;19;20046;-58
2023/12/11 05:27:27;;;;;;;0.10;0.00;;;;;;;31.67;36.04;98012.16;7397359;19;20026;-58
2023/12/11 05:29:53;;;;;;;0.10;0.10;;;;;;;31.95;35.46;98013.16;7397598;19;20035;-60
2023/12/11 05:32:19;;;;;;;0.10;0.10;;;;;;;32.40;34.64;98021.81;7395898;19;20014;-58
2023/12/11 05:34:45;;;;;;;0.77;0.15;;;;;;;32.77;34.21;98024.44;7396968;19;20026;-61
2023/12/11 05:37:11;;;;;;;0.73;0.57;;;;;;;32.82;33.85;98028.94;7398321;19;20021;-61
2023/12/11 05:39:38;;;;;;;0.80;0.43;;;;;;;34.26;32.46;98040.13;7395837;19;20039;-60
2023/12/11 05:42:04;;;;;;;1.10;0.75;;;;;;;34.48;31.61;98042.81;7400529;19;20053;-61
2023/12/11 05:44:30;;;;;;;2.33;1.73;;;;;;;34.51;31.54;98037.84;7395811;19;20014;-60
2023/12/11 05:46:56;;;;;;;4.68;0.68;;;;;;;34.86;30.44;98051.66;7396017;19;20006;-60
2023/12/11 05:49:22;;;;;;;2.00;0.20;;;;;;;34.30;30.75;98054.69;7397256;19;20015;-60
2023/12/11 05:51:48;;;;;;;0.10;0.10;;;;;;;33.83;31.12;98062.84;7398426;19;20021;-60
2023/12/11 05:54:15;;;;;;;0.10;0.10;;;;;;;33.85;31.38;98065.78;7396039;19;20010;-60
2023/12/11 05:56:41;;;;;;;0.10;0.10;;;;;;;33.90;31.61;98079.66;7395386;19;20047;-60
2023/12/11 05:59:07;;;;;;;0.40;0.40;;;;;;;29.56;35.10;98082.13;7395329;19;20014;-60
2023/12/11 06:01:33;;;;;;;0.43;0.10;;;;;;;28.02;37.27;98091.31;7399201;19;20022;-60
2023/12/11 06:04:00;;;;;;;0.10;0.10;;;;;;;27.16;39.25;98086.75;7400654;19;20010;-60
2023/12/11 06:06:27;;;;;;;0.68;0.50;;;;;;;26.98;39.38;98098.66;7396446;19;20017;-60
2023/12/11 06:08:53;;;;;;;0.17;0.17;;;;;;;38.44;28.57;98089.22;7391910;19;20017;-60
2023/12/11 06:11:19;;;;;;;1.42;0.68;;;;;;;40.86;25.96;98098.91;7397436;19;20090;-60
2023/12/11 06:13:46;;;;;;;0.10;0.10;;;;;;;41.48;25.09;98089.97;7395548;19;20031;-60
2023/12/11 06:16:13;;;;;;;0.88;0.60;;;;;;;41.74;23.91;98097.88;7395411;19;20019;-60
2023/12/11 06:18:39;;;;;;;0.28;0.20;;;;;;;42.26;23.38;98096.84;7395856;19;20015;-63
2023/12/11 06:21:05;;;;;;;0.10;0.10;;;;;;;42.70;22.90;98096.50;7397511;19;20018;-60
2023/12/11 06:23:32;;;;;;;0.10;0.10;;;;;;;42.45;23.07;98104.00;7394834;19;20023;-60
2023/12/11 06:25:58;;;;;;;0.95;0.10;;;;;;;42.54;22.97;98099.56;7395365;19;20796;-58
2023/12/11 06:28:24;;;;;;;0.10;0.10;;;;;;;42.19;22.89;98110.09;7392469;19;20011;-60
2023/12/11 06:30:51;;;;;;;0.52;0.52;;;;;;;42.44;22.81;98108.44;7397499;19;20011;-63
2023/12/11 06:33:17;;;;;;;0.10;0.00;;;;;;;42.13;22.73;98121.81;7395044;19;20027;-60
2023/12/11 06:35:43;;;;;;;0.08;0.08;;;;;;;41.96;22.60;98117.50;7392652;19;20010;-59
2023/12/11 06:38:09;;;;;;;0.40;0.40;;;;;;;41.81;22.59;98121.97;7396923;19;20035;-59
2023/12/11 06:40:35;;;;;;;0.10;0.00;;;;;;;41.83;22.07;98131.47;7395283;19;20031;-60
2023/12/11 06:43:02;;;;;;;0.65;0.65;;;;;;;41.70;22.23;98120.56;7396214;19;20011;-59
2023/12/11 06:45:28;;;;;;;0.75;0.75;;;;;;;41.77;22.03;98140.28;7394355;19;20380;-60
2023/12/11 06:47:54;;;;;;;0.22;0.22;;;;;;;42.17;22.08;98136.44;7393535;19;20011;-59
2023/12/11 06:50:20;;;;;;;0.77;0.77;;;;;;;42.41;21.92;98142.09;7394338;19;20010;-60
2023/12/11 06:52:47;;;;;;;0.38;0.38;;;;;;;42.74;21.39;98137.47;7391372;19;20349;-60
2023/12/11 06:55:13;;;;;;;2.17;0.47;;;;;;;42.70;21.43;98137.50;7393370;19;20039;-60
2023/12/11 06:57:39;;;;;;;3.13;1.15;;;;;;;39.33;23.38;98156.84;7393724;19;20531;-60
2023/12/11 07:00:06;;;;;;;0.75;0.65;;;;;;;38.14;24.46;98155.81;7392560;19;20014;-59
2023/12/11 07:02:32;;;;;;;11.05;0.73;;;;;;;38.15;24.49;98160.19;7398682;19;20018;-60
2023/12/11 07:04:59;;;;;;;2.33;1.55;;;;;;;38.38;24.06;98164.81;7396386;19;20006;-60
2023/12/11 07:07:25;;;;;;;1.08;0.25;;;;;;;38.23;24.01;98169.00;7392818;19;20031;-59
2023/12/11 07:09:51;;;;;;;0.63;0.63;;;;;;;38.19;24.37;98171.13;7392129;19;20021;-60
2023/12/11 07:12:17;;;;;;;0.10;0.10;;;;;;;38.88;23.73;98179.09;7392479;19;20407;-59
2023/12/11 07:14:44;;;;;;;1.13;0.85;;;;;;;38.20;24.43;98184.97;7392711;19;20010;-59
2023/12/11 07:17:10;;;;;;;1.50;0.75;;;;;;;38.12;24.20;98178.34;7390275;19;20010;-59
2023/12/11 07:19:36;;;;;;;0.35;0.32;;;;;;;38.00;23.86;98190.56;7390405;19;20017;-60
2023/12/11 07:22:03;;;;;;;1.10;0.30;;;;;;;38.21;23.98;98191.50;7395958;19;20062;-59
2023/12/11 07:24:29;;;;;;;0.43;0.43;;;;;;;38.37;24.00;98197.53;7392734;19;20019;-60
2023/12/11 07:26:56;;;;;;;0.50;0.50;;;;;;;38.29;24.00;98197.44;7393452;19;20018;-59
2023/12/11 07:29:22;;;;;;;0.55;0.40;;;;;;;38.09;24.48;98203.75;7394450;19;20010;-59
2023/12/11 07:31:48;;;;;;;0.90;0.55;;;;;;;37.93;24.50;98215.19;7396705;19;20035;-58
2023/12/11 07:34:14;;;;;;;0.63;0.45;;;;;;;37.88;24.22;98220.22;7394050;19;20031;-60
2023/12/11 07:36:40;;;;;;;0.20;0.20;;;;;;;38.35;24.38;98212.78;7393350;19;20115;-60
2023/12/11 07:39:07;;;;;;;3.25;0.88;;;;;;;38.79;23.93;98211.78;7393806;19;20239;-60
2023/12/11 07:41:33;;;;;;;0.10;0.10;;;;;;;38.27;24.30;98218.50;7394693;19;20010;-60
2023/12/11 07:43:59;;;;;;;0.30;0.22;;;;;;;38.92;23.95;98225.69;7392876;19;20092;-60
2023/12/11 07:46:25;;;;;;;0.10;0.10;;;;;;;39.13;23.81;98220.81;7389784;19;20027;-60
2023/12/11 07:48:53;;;;;;;0.10;0.00;;;;;;;38.71;23.60;98223.31;7388010;19;20502;-60
2023/12/11 07:51:22;;;;;;;0.10;0.10;;;;;;;38.41;23.97;98232.47;7394358;19;20023;-58
2023/12/11 07:53:48;;;;;;;0.47;0.47;;;;;;;41.46;22.38;98236.13;7393052;19;20010;-60
2023/12/11 07:56:21;;;;;;;0.38;0.30;;;;;;;42.43;21.49;98224.06;7393246;19;20482;-59
2023/12/11 07:58:48;;;;;;;0.22;0.17;;;;;;;39.63;23.31;98235.72;7392664;19;20395;-58
2023/12/11 08:01:14;;;;;;;0.35;0.10;;;;;;;38.66;23.76;98237.81;7393353;19;20014;-58
2023/12/11 08:03:41;;;;;;;0.43;0.40;;;;;;;38.21;23.78;98238.03;7396516;19;20877;-59
2023/12/11 08:06:10;;;;;;;0.10;0.10;;;;;;;37.91;24.41;98242.06;7392262;19;20011;-59
2023/12/11 08:08:40;;;;;;;0.30;0.30;;;;;;;37.73;24.40;98243.97;7391140;19;20045;-59
2023/12/11 08:11:18;;;;;;;2.00;0.90;;;;;;;37.61;24.72;98255.44;7392062;19;20014;-59
2023/12/11 08:13:44;;;;;;;0.13;0.13;;;;;;;37.83;24.54;98252.84;7390529;19;20107;-58
2023/12/11 08:16:11;;;;;;;0.90;0.43;;;;;;;37.80;24.00;98254.25;7391055;19;20007;-58
2023/12/11 08:18:37;;;;;;;0.43;0.43;;;;;;;39.64;23.50;98251.00;7391123;19;20074;-58
2023/12/11 08:21:04;;;;;;;4.28;1.92;;;;;;;42.28;21.59;98257.81;7391352;19;20027;-59
2023/12/11 08:23:30;;;;;;;0.10;0.10;;;;;;;42.80;21.15;98254.59;7391431;19;20015;-59
2023/12/11 08:25:56;;;;;;;0.10;0.00;;;;;;;41.19;21.87;98269.75;7391519;19;20356;-59
2023/12/11 08:28:23;;;;;;;0.13;0.08;;;;;;;38.70;23.48;98274.28;7391001;19;20014;-59
2023/12/11 08:30:49;;;;;;;0.10;0.00;;;;;;;38.26;23.67;98278.13;7392717;19;20013;-59
2023/12/11 08:33:15;;;;;;;1.83;1.45;;;;;;;38.05;23.88;98278.56;7390910;19;20028;-59
2023/12/11 08:35:41;;;;;;;7.90;0.65;;;;;;;37.94;24.14;98280.63;7386283;19;20027;-59
2023/12/11 08:38:08;;;;;;;0.10;0.10;;;;;;;37.86;24.04;98292.88;7390236;19;20022;-59
2023/12/11 08:40:34;;;;;;;0.20;0.20;;;;;;;38.02;24.11;98294.50;7386579;19;20032;-59
2023/12/11 08:43:00;;;;;;;0.30;0.30;;;;;;;37.81;24.11;98293.53;7388654;19;20007;-59
2023/12/11 08:45:26;;;;;;;0.08;0.08;;;;;;;38.18;23.80;98297.63;7388011;19;20013;-59
2023/12/11 08:47:52;;;;;;;0.10;0.00;;;;;;;38.51;23.44;98294.41;7387118;19;20108;-59
2023/12/11 08:50:19;;;;;;;6.85;0.57;;;;;;;38.66;23.72;98298.22;7389642;19;20026;-59
2023/12/11 08:52:45;;;;;;;2.28;1.55;;;;;;;38.56;23.74;98301.75;7393989;19;20010;-60
2023/12/11 08:55:11;;;;;;;0.73;0.38;;;;;;;38.47;23.28;98308.91;7389346;19;20017;-59
2023/12/11 08:57:38;;;;;;;0.10;0.00;;;;;;;38.35;23.31;98308.06;7390651;19;20021;-59
2023/12/11 09:00:05;;;;;;;12.68;0.43;;;;;;;38.38;23.35;98316.09;7390776;19;20014;-60
2023/12/11 09:02:31;;;;;;;0.10;0.10;;;;;;;38.42;23.57;98321.25;7394392;19;20019;-60
2023/12/11 09:04:57;;;;;;;0.10;0.00;;;;;;;38.50;23.79;98333.69;7391215;19;20467;-59
2023/12/11 09:07:24;;;;;;;0.52;0.35;;;;;;;38.34;23.51;98335.66;7389687;19;20376;-59
2023/12/11 09:09:50;;;;;;;0.50;0.40;;;;;;;38.24;23.55;98344.25;7389643;19;20015;-59
2023/12/11 09:12:16;;;;;;;0.20;0.20;;;;;;;39.78;22.85;98333.47;7394174;19;20391;-59
2023/12/11 09:14:42;;;;;;;0.17;0.17;;;;;;;42.49;20.89;98335.34;7392818;19;20035;-60
2023/12/11 09:17:10;;;;;;;0.10;0.00;;;;;;;42.75;20.85;98344.00;7389237;19;20365;-59
2023/12/11 09:19:36;;;;;;;0.10;0.10;;;;;;;42.28;21.26;98339.06;7388682;19;20015;-59
2023/12/11 09:22:02;;;;;;;0.10;0.10;;;;;;;42.31;21.08;98350.03;7393231;19;20011;-59
2023/12/11 09:24:28;;;;;;;0.10;0.10;;;;;;;42.48;20.83;98354.34;7390263;19;20015;-60
2023/12/11 09:26:55;;;;;;;0.57;0.20;;;;;;;42.41;20.88;98347.03;7387901;19;20022;-60
2023/12/11 09:29:21;;;;;;;0.28;0.28;;;;;;;42.19;20.95;98356.63;7389456;19;20031;-59
2023/12/11 09:31:47;;;;;;;0.68;0.43;;;;;;;41.84;20.90;98354.53;7396776;19;20015;-59
2023/12/11 09:34:14;;;;;;;0.10;0.00;;;;;;;41.41;20.96;98365.50;7397914;19;20049;-59
2023/12/11 09:36:40;;;;;;;0.15;0.15;;;;;;;41.52;21.05;98370.59;7396329;19;20031;-59
2023/12/11 09:39:07;;;;;;;0.10;0.05;;;;;;;41.56;21.00;98370.59;7395957;19;20014;-59
2023/12/11 09:41:34;;;;;;;1.00;0.85;;;;;;;41.60;21.06;98369.88;7398102;19;20014;-60
2023/12/11 09:44:01;;;;;;;0.35;0.35;;;;;;;41.62;20.96;98375.72;7397481;19;20062;-59
2023/12/11 09:46:31;;;;;;;0.10;0.10;;;;;;;41.14;20.87;98385.16;7396497;19;20011;-59
2023/12/11 09:48:57;;;;;;;0.10;0.10;;;;;;;37.40;23.33;98393.84;7395159;19;20022;-58
2023/12/11 09:51:24;;;;;;;0.20;0.20;;;;;;;36.91;23.98;98397.25;7396466;19;20014;-60
2023/12/11 09:53:52;;;;;;;0.10;0.10;;;;;;;36.78;23.99;98404.97;7397408;19;20400;-59
2023/12/11 09:56:19;;;;;;;0.43;0.43;;;;;;;36.85;24.54;98412.38;7396891;19;20014;-58
2023/12/11 09:58:46;;;;;;;0.10;0.00;;;;;;;37.02;24.59;98414.19;7396521;19;20014;-60
2023/12/11 10:01:13;;;;;;;0.10;0.10;;;;;;;36.90;24.25;98413.97;7397915;19;20036;-59
2023/12/11 10:03:39;;;;;;;0.10;0.00;;;;;;;36.96;24.12;98422.78;7399272;19;20591;-60
2023/12/11 10:06:06;;;;;;;0.10;0.00;;;;;;;36.92;24.02;98428.50;7394423;19;20010;-59
2023/12/11 10:08:52;;;;;;;0.25;0.25;;;;;;;36.99;24.03;98427.19;7397745;19;20401;-58
2023/12/11 10:11:22;;;;;;;0.32;0.25;;;;;;;36.95;24.17;98432.91;7395717;19;20035;-59
2023/12/11 10:13:50;;;;;;;0.30;0.10;;;;;;;36.83;24.04;98432.66;7397011;19;20010;-59
2023/12/11 10:16:30;;;;;;;1.00;0.55;;;;;;;36.69;24.30;98435.25;7394977;19;20031;-59
2023/12/11 10:18:57;;;;;;;5.25;0.95;;;;;;;36.72;24.25;98442.59;7393813;19;20050;-59
2023/12/11 10:21:24;;;;;;;0.32;0.30;;;;;;;36.93;24.53;98447.38;7393490;19;20015;-58
2023/12/11 10:24:04;;;;;;;1.55;0.70;;;;;;;37.18;24.54;98460.97;7395403;19;20409;-58
2023/12/11 10:26:37;;;;;;;32.88;9.45;;;;;;;37.12;24.44;98457.91;7394152;19;20010;-61
2023/12/11 10:29:22;;;;;;;0.20;0.15;;;;;;;37.62;24.30;98460.31;7393194;19;20010;-61
2023/12/11 10:31:59;;;;;;;1.65;0.65;;;;;;;37.63;24.17;98461.78;7396219;19;20038;-60
2023/12/11 10:34:42;;;;;;;0.17;0.10;;;;;;;37.72;24.05;98457.56;7396677;19;20038;-59
2023/12/11 10:37:11;;;;;;;2.50;0.90;;;;;;;37.49;23.91;98465.16;7396236;19;20015;-59
2023/12/11 10:39:37;;;;;;;2.20;0.82;;;;;;;37.34;24.21;98462.69;7395016;19;20056;-60
2023/12/11 10:42:17;;;;;;;3.00;0.70;;;;;;;37.30;24.37;98471.31;7396063;19;20014;-61
2023/12/11 10:44:43;;;;;;;6.15;1.05;;;;;;;37.25;23.93;98471.25;7396024;19;20447;-60
2023/12/11 10:47:09;;;;;;;1.17;0.40;;;;;;;37.25;23.90;98464.72;7395642;19;20074;-60
2023/12/11 10:49:36;;;;;;;4.38;0.75;;;;;;;37.34;24.32;98465.59;7396237;19;20011;-60
2023/12/11 10:52:03;;;;;;;0.63;0.22;;;;;;;37.58;24.31;98468.94;7395216;19;20014;-60
2023/12/11 10:54:29;;;;;;;0.10;0.10;;;;;;;37.89;24.06;98476.78;7394680;19;20035;-60
2023/12/11 10:56:59;;;;;;;2.42;0.43;;;;;;;38.03;24.32;98474.13;7393934;19;20018;-60
2023/12/11 10:59:27;;;;;;;0.80;0.35;;;;;;;40.58;22.40;98479.16;7394885;19;20006;-60
2023/12/11 11:01:56;;;;;;;0.10;0.08;;;;;;;40.99;21.98;98477.16;7395690;19;20011;-60
2023/12/11 11:04:22;;;;;;;15.80;0.40;;;;;;;41.55;21.96;98486.09;7394631;19;20014;-62
2023/12/11 11:06:56;;;;;;;0.40;0.20;;;;;;;39.05;22.93;98479.94;7398738;19;20039;-60
2023/12/11 11:09:59;;;;;;;0.20;0.20;;;;;;;38.38;23.99;98484.13;7394073;19;20018;-60
2023/12/11 11:12:46;;;;;;;0.10;0.10;;;;;;;37.95;24.26;98489.25;7394525;19;20015;-61
2023/12/11 11:15:20;;;;;;;5.13;0.52;;;;;;;37.91;24.32;98497.91;7394090;19;20018;-60
2023/12/11 11:18:00;;;;;;;1.20;0.57;;;;;;;38.01;24.20;98496.59;7395586;19;20018;-60
2023/12/11 11:20:39;;;;;;;3.50;0.65;;;;;;;38.15;24.03;98494.66;7396244;19;20018;-61
2023/12/11 11:23:18;;;;;;;0.10;0.10;;;;;;;38.20;23.74;98499.09;7394213;19;20011;-60
2023/12/11 11:25:54;;;;;;;0.10;0.05;;;;;;;38.10;23.80;98501.81;7392287;19;20084;-61
2023/12/11 11:28:41;;;;;;;1.42;0.22;;;;;;;38.02;23.78;98495.88;7396562;19;20021;-60
2023/12/11 11:31:09;;;;;;;0.95;0.65;;;;;;;38.07;24.07;98500.34;7394024;19;20346;-61
2023/12/11 11:33:46;;;;;;;0.28;0.28;;;;;;;38.01;24.12;98503.13;7393932;19;20015;-60